Carrollton, Missouri
Current Conditions -  °F | °C
As of 4:15 AM on Thursday 23 Oct 2014 (Local Time) from KGPH Reporting Station
Overcast Overcast  
Wind Chill: 55°   Ceiling: 5500
Heat Index: 55°   Visibility: 10mi
Dew Point: 50°   Wind: 0mph
Humidity: 82%   Direction: NA
Pressure: 30.11"   Gusts: NA
Location:  39.36°N, 93.5°W
Report Text: KGPH 230915Z AUTO 00000KT 10SM SCT027 BKN055 OVC110 13/10 A3011 RMK AO2
Loading
Personal Weather Stations






























Interactive Weather Map
Tropical Storm Tracking
New forecast layout! Learn more

10-Day Weather Forecast

Advertisements
Track Severe Weather on mobile